Ghent, Minnesota
Current Conditions -  °F | °C
As of 1:15 AM on Wednesday 22 Oct 2014 (Local Time) from KMML Reporting Station
Clear Clear  
Wind Chill: 54°   Ceiling: Unl
Heat Index: 54°   Visibility: 10mi
Dew Point: 39°   Wind: 17mph
Humidity: 58%   Direction: 170°S
Pressure: 30.02"   Gusts: 24mph
Location:  44.51°N, 95.89°W
Report Text: KMML 220615Z AUTO 17015G21KT 10SM CLR 12/04 A3002 RMK AO1
Loading
Personal Weather Stations






























Interactive Weather Map
Tropical Storm Tracking
New forecast layout! Learn more

10-Day Weather Forecast

Advertisements
Track Severe Weather on mobile